Time;durP1;ratioP1;P1;durP2;ratioP2;P2;SDS_P1;SDS_P2;PMS_P1;PMS_P2;Temp;Humidity;BMP_temperature;BMP_pressure;BME280_temperature;BME280_humidity;BME280_pressure;Samples;Min_cycle;Max_cycle;Signal;HPM_P1;HPM_P2
2023/03/19 00:02:11;;;;;;;13.02;7.53;;;7.50;94.90;;;;;;5033016;28;20485;-51
2023/03/19 00:04:37;;;;;;;18.42;11.07;;;7.30;95.10;;;;;;5021140;28;20030;-52
2023/03/19 00:07:02;;;;;;;24.08;13.30;;;7.10;95.40;;;;;;5029464;28;20049;-52
2023/03/19 00:09:28;;;;;;;17.10;10.05;;;7.00;95.70;;;;;;5021411;28;20432;-51
2023/03/19 00:11:54;;;;;;;16.17;9.77;;;7.00;95.90;;;;;;5017110;28;20034;-54
2023/03/19 00:14:20;;;;;;;13.85;8.57;;;6.90;95.80;;;;;;5025059;28;20025;-53
2023/03/19 00:16:45;;;;;;;14.30;7.75;;;6.90;95.90;;;;;;5019550;28;20100;-55
2023/03/19 00:19:11;;;;;;;16.63;9.77;;;6.90;96.10;;;;;;5016396;28;20100;-54
2023/03/19 00:21:37;;;;;;;15.13;8.73;;;6.70;96.30;;;;;;5031950;28;20034;-51
2023/03/19 00:24:03;;;;;;;14.48;9.63;;;6.70;96.50;;;;;;5028018;28;20037;-53
2023/03/19 00:26:32;;;;;;;21.55;10.65;;;6.60;96.70;;;;;;5012254;28;20056;-53
2023/03/19 00:28:58;;;;;;;17.23;10.05;;;6.60;96.70;;;;;;5018687;28;20028;-51
2023/03/19 00:31:26;;;;;;;15.48;9.82;;;6.50;96.90;;;;;;5029978;28;20061;-52
2023/03/19 00:33:52;;;;;;;15.68;10.25;;;6.40;97.10;;;;;;5023735;28;20033;-51
2023/03/19 00:36:18;;;;;;;17.40;10.48;;;6.50;97.20;;;;;;5026313;28;20028;-53
2023/03/19 00:38:45;;;;;;;17.38;10.15;;;6.70;97.00;;;;;;5026534;28;20087;-51
2023/03/19 00:41:11;;;;;;;19.00;10.82;;;6.70;96.80;;;;;;5029960;28;20444;-53
2023/03/19 00:43:37;;;;;;;21.55;11.45;;;6.70;96.90;;;;;;5025600;28;20382;-53
2023/03/19 00:46:03;;;;;;;29.40;15.82;;;6.70;96.80;;;;;;5030971;28;20025;-54
2023/03/19 00:48:29;;;;;;;24.13;13.40;;;6.50;97.00;;;;;;5025724;28;20033;-54
2023/03/19 00:50:55;;;;;;;19.40;11.48;;;6.50;97.20;;;;;;5021087;28;20365;-55
2023/03/19 00:53:21;;;;;;;24.13;12.32;;;6.60;97.50;;;;;;5030509;28;20053;-51
2023/03/19 00:55:47;;;;;;;23.98;11.43;;;6.40;97.30;;;;;;5024928;28;20073;-51
2023/03/19 00:58:13;;;;;;;19.30;11.35;;;6.30;97.60;;;;;;5028114;28;20037;-53
2023/03/19 01:00:39;;;;;;;18.27;9.65;;;6.30;97.70;;;;;;5030922;28;20517;-53
2023/03/19 01:03:05;;;;;;;21.92;11.43;;;6.40;97.70;;;;;;5028155;28;20061;-52
2023/03/19 01:05:33;;;;;;;18.33;10.15;;;6.30;97.90;;;;;;5044813;28;20101;-53
2023/03/19 01:07:59;;;;;;;17.13;10.35;;;;;;;;;;5029836;28;20064;-51
2023/03/19 01:10:25;;;;;;;20.15;11.43;;;6.30;99.90;;;;;;5033357;28;20386;-53
2023/03/19 01:12:51;;;;;;;22.38;12.60;;;6.20;98.70;;;;;;5032168;28;20022;-50
2023/03/19 01:15:17;;;;;;;22.73;12.45;;;6.30;98.50;;;;;;5023037;28;20025;-54
2023/03/19 01:17:44;;;;;;;21.42;13.00;;;6.40;98.00;;;;;;5029240;28;20022;-50
2023/03/19 01:20:17;;;;;;;17.92;11.10;;;6.20;98.50;;;;;;5031279;28;20041;-53
2023/03/19 01:22:44;;;;;;;18.50;10.48;;;6.20;98.70;;;;;;5035312;28;20511;-51
2023/03/19 01:25:11;;;;;;;16.85;10.45;;;6.40;98.40;;;;;;5029732;28;20110;-51
2023/03/19 01:27:38;;;;;;;12.38;8.27;;;6.40;98.20;;;;;;5029712;28;20143;-53
2023/03/19 01:30:06;;;;;;;15.82;9.73;;;6.30;98.10;;;;;;5034526;28;20025;-51
2023/03/19 01:32:32;;;;;;;15.27;9.65;;;6.30;98.00;;;;;;5025276;28;20026;-54
2023/03/19 01:34:58;;;;;;;14.57;9.48;;;6.20;98.40;;;;;;5029513;28;20022;-51
2023/03/19 01:37:23;;;;;;;16.55;9.05;;;6.20;98.70;;;;;;5027660;28;20034;-54
2023/03/19 01:39:49;;;;;;;18.63;10.05;;;6.20;98.50;;;;;;5033993;28;20033;-52
2023/03/19 01:42:16;;;;;;;14.52;10.27;;;6.10;98.80;;;;;;5030876;28;20076;-52
2023/03/19 01:44:42;;;;;;;17.77;9.98;;;6.00;99.10;;;;;;5029423;28;20473;-51
2023/03/19 01:47:18;;;;;;;15.50;10.40;;;6.20;99.00;;;;;;5031073;28;20386;-52
2023/03/19 01:49:51;;;;;;;17.27;11.07;;;6.00;99.10;;;;;;5027711;28;20041;-51
2023/03/19 01:52:17;;;;;;;19.88;11.57;;;6.10;99.10;;;;;;5031602;28;20054;-51
2023/03/19 01:54:43;;;;;;;17.33;10.50;;;6.00;99.10;;;;;;5025881;28;20482;-53
2023/03/19 01:57:12;;;;;;;15.48;9.73;;;6.20;99.20;;;;;;5034401;28;20025;-54
2023/03/19 01:59:50;;;;;;;17.55;10.43;;;6.30;98.80;;;;;;5028385;28;20029;-53
2023/03/19 02:02:31;;;;;;;16.77;9.40;;;6.50;98.60;;;;;;5024569;28;20108;-50
2023/03/19 02:05:02;;;;;;;17.83;10.17;;;6.70;98.10;;;;;;5047099;28;20068;-52
2023/03/19 02:07:33;;;;;;;18.90;10.57;;;6.80;97.80;;;;;;5041673;28;20033;-51
2023/03/19 02:10:00;;;;;;;20.15;10.65;;;6.90;97.50;;;;;;5032968;28;20040;-50
2023/03/19 02:12:27;;;;;;;15.05;9.98;;;7.00;97.50;;;;;;5027383;28;20110;-51
2023/03/19 02:14:53;;;;;;;17.15;10.55;;;7.00;97.20;;;;;;5031669;28;20076;-51
2023/03/19 02:17:20;;;;;;;17.88;10.70;;;7.00;97.40;;;;;;5032142;28;20026;-53
2023/03/19 02:20:05;;;;;;;18.48;11.10;;;7.00;97.50;;;;;;5030724;28;20076;-53
2023/03/19 02:22:31;;;;;;;16.77;10.82;;;6.90;97.50;;;;;;5023111;28;20529;-51
2023/03/19 02:25:20;;;;;;;15.25;10.75;;;6.60;97.60;;;;;;5031303;28;20473;-53
2023/03/19 02:27:46;;;;;;;23.48;13.75;;;6.60;97.80;;;;;;5027552;28;20080;-51
2023/03/19 02:30:25;;;;;;;17.63;12.25;;;6.80;97.50;;;;;;5031129;28;20103;-53
2023/03/19 02:32:51;;;;;;;22.45;12.05;;;6.80;97.80;;;;;;5029031;28;20033;-51
2023/03/19 02:35:17;;;;;;;16.38;10.95;;;6.80;97.70;;;;;;5030693;28;20370;-53
2023/03/19 02:37:43;;;;;;;19.52;11.23;;;6.90;97.80;;;;;;5033273;28;20032;-53
2023/03/19 02:40:16;;;;;;;19.63;12.93;;;6.80;97.80;;;;;;5026939;28;20021;-52
2023/03/19 02:42:42;;;;;;;22.85;13.02;;;6.80;97.60;;;;;;5031951;28;20026;-51
2023/03/19 02:45:08;;;;;;;19.63;12.80;;;6.90;97.30;;;;;;5030569;28;20539;-52
2023/03/19 02:47:34;;;;;;;19.52;11.65;;;6.90;97.50;;;;;;5025297;28;20181;-53
2023/03/19 02:49:59;;;;;;;25.98;15.63;;;6.90;97.50;;;;;;5031644;28;20511;-52
2023/03/19 02:52:25;;;;;;;23.50;14.13;;;6.90;97.30;;;;;;5027551;28;20037;-50
2023/03/19 02:54:51;;;;;;;19.40;10.80;;;7.00;97.30;;;;;;5028148;28;20100;-51
2023/03/19 02:57:17;;;;;;;16.80;10.90;;;7.00;96.90;;;;;;5042748;28;20030;-52
2023/03/19 02:59:42;;;;;;;17.60;11.57;;;6.60;97.10;;;;;;5022411;28;20124;-52
2023/03/19 03:02:09;;;;;;;18.92;12.02;;;6.70;97.40;;;;;;5044914;28;20535;-53
2023/03/19 03:04:36;;;;;;;19.75;12.68;;;6.80;97.30;;;;;;5024603;28;20407;-53
2023/03/19 03:07:02;;;;;;;27.60;15.07;;;6.70;97.30;;;;;;5020392;28;20030;-51
2023/03/19 03:09:28;;;;;;;22.65;14.48;;;6.70;97.20;;;;;;5032805;28;20159;-50
2023/03/19 03:11:54;;;;;;;19.52;11.50;;;6.70;97.40;;;;;;5031189;28;20104;-52
2023/03/19 03:14:20;;;;;;;18.33;11.25;;;6.50;97.50;;;;;;5024913;28;20024;-51
2023/03/19 03:16:45;;;;;;;17.05;12.40;;;6.00;98.30;;;;;;5026560;28;20025;-50
2023/03/19 03:19:12;;;;;;;15.88;10.10;;;5.90;99.20;;;;;;5043570;28;20041;-54
2023/03/19 03:21:38;;;;;;;16.35;11.13;;;5.90;99.20;;;;;;5023315;28;20057;-53
2023/03/19 03:24:04;;;;;;;16.42;11.20;;;5.80;99.60;;;;;;5031782;28;20069;-53
2023/03/19 03:26:30;;;;;;;18.67;11.18;;;5.70;99.90;;;;;;5014879;28;20160;-52
2023/03/19 03:28:56;;;;;;;15.60;10.98;;;5.50;99.90;;;;;;5027706;28;20101;-54
2023/03/19 03:31:22;;;;;;;19.73;12.13;;;5.20;99.90;;;;;;5048032;28;20033;-53
2023/03/19 03:33:49;;;;;;;16.20;11.88;;;5.50;99.90;;;;;;5032214;28;20113;-51
2023/03/19 03:36:15;;;;;;;16.85;11.00;;;5.70;99.90;;;;;;5025944;28;20025;-52
2023/03/19 03:38:40;;;;;;;20.85;11.43;;;5.70;99.90;;;;;;5019609;28;20066;-53
2023/03/19 03:41:06;;;;;;;20.65;12.00;;;5.90;99.90;;;;;;5018785;28;20030;-52
2023/03/19 03:43:32;;;;;;;18.02;11.07;;;6.10;99.90;;;;;;5024792;28;20087;-51
2023/03/19 03:45:58;;;;;;;15.55;10.73;;;6.30;99.90;;;;;;5030503;28;20021;-51
2023/03/19 03:48:24;;;;;;;14.77;10.35;;;6.20;99.60;;;;;;5027919;28;20022;-51
2023/03/19 03:50:50;;;;;;;16.38;11.00;;;6.00;99.90;;;;;;5026920;28;20026;-52
2023/03/19 03:53:16;;;;;;;15.95;10.48;;;6.20;99.90;;;;;;5026484;28;20029;-50
2023/03/19 03:55:42;;;;;;;17.52;10.40;;;6.00;99.90;;;;;;5024328;28;20076;-53
2023/03/19 03:58:07;;;;;;;18.08;10.50;;;6.10;99.90;;;;;;5031628;28;20393;-52
2023/03/19 04:00:33;;;;;;;15.38;10.25;;;6.20;99.90;;;;;;5005644;28;20042;-53
2023/03/19 04:02:59;;;;;;;18.45;10.50;;;5.90;99.90;;;;;;5024015;28;20030;-51
2023/03/19 04:05:25;;;;;;;13.10;10.75;;;5.60;99.90;;;;;;5025986;28;20034;-50
2023/03/19 04:07:51;;;;;;;15.68;10.75;;;5.50;99.90;;;;;;5030246;28;20397;-54
2023/03/19 04:10:17;;;;;;;17.08;10.68;;;5.80;99.90;;;;;;5028702;28;20364;-53
2023/03/19 04:12:44;;;;;;;15.73;11.98;;;5.90;99.90;;;;;;5026566;28;20029;-53
2023/03/19 04:15:11;;;;;;;17.30;10.50;;;5.80;99.90;;;;;;5032971;28;20017;-51
2023/03/19 04:17:37;;;;;;;15.38;11.27;;;5.40;99.90;;;;;;5029081;28;20116;-51
2023/03/19 04:20:03;;;;;;;17.98;11.68;;;5.10;99.90;;;;;;5025918;28;20125;-52
2023/03/19 04:22:30;;;;;;;17.60;10.80;;;4.60;99.90;;;;;;5023235;28;20087;-51
2023/03/19 04:24:56;;;;;;;15.95;10.30;;;4.40;99.90;;;;;;5046125;28;20128;-54
2023/03/19 04:27:22;;;;;;;16.75;11.65;;;4.40;99.90;;;;;;5027222;28;20155;-53
2023/03/19 04:29:47;;;;;;;17.73;12.15;;;4.60;99.90;;;;;;5023245;28;20546;-51
2023/03/19 04:32:14;;;;;;;21.55;12.75;;;4.60;99.90;;;;;;5024761;28;20436;-54
2023/03/19 04:34:40;;;;;;;18.00;12.30;;;4.60;99.90;;;;;;5021564;28;20390;-51
2023/03/19 04:37:09;;;;;;;17.40;11.00;;;4.40;99.90;;;;;;5018692;28;20026;-54
2023/03/19 04:39:35;;;;;;;15.23;10.75;;;4.50;99.90;;;;;;5026797;28;20409;-52
2023/03/19 04:42:02;;;;;;;15.95;10.90;;;4.50;99.90;;;;;;5031519;28;20103;-53
2023/03/19 04:44:28;;;;;;;16.73;11.15;;;4.50;99.90;;;;;;5019007;28;20401;-53
2023/03/19 04:46:53;;;;;;;16.45;10.63;;;4.60;99.90;;;;;;5026276;28;20022;-53
2023/03/19 04:49:19;;;;;;;18.48;9.85;;;4.90;99.90;;;;;;5024972;28;20088;-51
2023/03/19 04:51:45;;;;;;;14.88;9.90;;;4.80;99.90;;;;;;5023110;28;20117;-52
2023/03/19 04:54:11;;;;;;;12.50;10.18;;;4.80;99.90;;;;;;5031757;28;20029;-52
2023/03/19 04:56:37;;;;;;;16.88;11.15;;;5.10;99.90;;;;;;5022309;28;20026;-50
2023/03/19 04:59:03;;;;;;;16.77;9.93;;;5.30;99.90;;;;;;5024137;28;20045;-54
2023/03/19 05:01:29;;;;;;;17.08;10.82;;;5.40;99.90;;;;;;5026925;28;20030;-50
2023/03/19 05:03:54;;;;;;;17.73;11.13;;;5.60;99.90;;;;;;5026099;28;20500;-51
2023/03/19 05:06:20;;;;;;;70.55;53.28;;;5.50;99.90;;;;;;5025623;28;20061;-52
2023/03/19 05:08:47;;;;;;;34.63;23.15;;;5.50;99.90;;;;;;5023025;28;20033;-51
2023/03/19 05:11:13;;;;;;;24.05;15.63;;;5.50;99.90;;;;;;5025958;28;20034;-54
2023/03/19 05:13:38;;;;;;;31.17;19.55;;;5.30;99.90;;;;;;5020565;28;20413;-51
2023/03/19 05:16:04;;;;;;;52.42;29.58;;;4.70;99.90;;;;;;5024718;28;20033;-53
2023/03/19 05:18:32;;;;;;;34.58;23.30;;;4.40;99.90;;;;;;5045121;28;20049;-52
2023/03/19 05:20:58;;;;;;;26.73;17.90;;;4.60;99.90;;;;;;5025281;28;20029;-51
2023/03/19 05:23:23;;;;;;;22.10;15.02;;;4.50;99.90;;;;;;5030959;28;20061;-54
2023/03/19 05:25:49;;;;;;;19.67;13.60;;;4.50;99.90;;;;;;5024854;28;20034;-52
2023/03/19 05:28:15;;;;;;;19.27;11.82;;;4.70;99.90;;;;;;5042664;28;20033;-50
2023/03/19 05:30:42;;;;;;;22.80;14.85;;;4.40;99.90;;;;;;5031427;28;20389;-51
2023/03/19 05:33:07;;;;;;;17.42;12.43;;;4.60;99.90;;;;;;5025128;28;20030;-52
2023/03/19 05:35:34;;;;;;;15.43;10.57;;;4.80;99.90;;;;;;5042302;28;20048;-54
2023/03/19 05:38:00;;;;;;;14.57;9.98;;;4.70;99.90;;;;;;5019172;28;20044;-54
2023/03/19 05:40:26;;;;;;;15.95;10.32;;;5.20;99.90;;;;;;5029979;28;20025;-53
2023/03/19 05:42:51;;;;;;;22.40;12.70;;;5.50;99.90;;;;;;5029841;28;20438;-53
2023/03/19 05:45:18;;;;;;;21.27;14.25;;;5.40;99.90;;;;;;5028566;28;20083;-50
2023/03/19 05:47:47;;;;;;;16.65;11.80;;;5.20;99.90;;;;;;5047161;28;20033;-53
2023/03/19 05:50:13;;;;;;;17.50;12.27;;;5.30;99.90;;;;;;5030347;28;20014;-53
2023/03/19 05:52:39;;;;;;;17.08;11.65;;;5.30;99.90;;;;;;5030841;28;20030;-52
2023/03/19 05:55:05;;;;;;;15.93;11.38;;;5.10;99.90;;;;;;5029955;28;20034;-52
2023/03/19 05:57:31;;;;;;;14.18;10.23;;;5.30;99.90;;;;;;5028046;28;20033;-52
2023/03/19 05:59:57;;;;;;;13.10;9.95;;;5.40;99.90;;;;;;5034820;28;20509;-51
2023/03/19 06:02:23;;;;;;;14.38;10.55;;;5.40;99.90;;;;;;5031830;28;20038;-56
2023/03/19 06:04:50;;;;;;;17.95;11.10;;;5.20;99.90;;;;;;5016876;28;20130;-52
2023/03/19 06:07:15;;;;;;;16.95;12.82;;;5.30;99.90;;;;;;5019916;28;20041;-53
2023/03/19 06:09:41;;;;;;;17.88;11.65;;;5.30;99.90;;;;;;5024418;28;20017;-52
2023/03/19 06:12:07;;;;;;;15.00;11.40;;;5.50;99.90;;;;;;5023997;28;20055;-52
2023/03/19 06:14:33;;;;;;;17.73;12.23;;;5.80;99.90;;;;;;5030629;28;20496;-52
2023/03/19 06:16:59;;;;;;;16.63;10.50;;;6.20;99.90;;;;;;5028657;28;20047;-53
2023/03/19 06:19:25;;;;;;;16.70;11.80;;;6.00;99.90;;;;;;5025124;28;20184;-52
2023/03/19 06:21:51;;;;;;;17.25;11.73;;;6.30;99.90;;;;;;5025300;28;20099;-50
2023/03/19 06:24:17;;;;;;;16.58;11.57;;;6.70;99.90;;;;;;5025521;28;20547;-50
2023/03/19 06:26:43;;;;;;;15.68;11.07;;;7.00;99.90;;;;;;5031220;28;20021;-50
2023/03/19 06:29:09;;;;;;;19.48;12.38;;;;;;;;;;5028183;28;20048;-53
2023/03/19 06:31:38;;;;;;;18.90;12.35;;;7.50;99.90;;;;;;5030018;28;20025;-50
2023/03/19 06:34:04;;;;;;;93.82;57.15;;;7.60;99.90;;;;;;5034849;28;20091;-50
2023/03/19 06:36:30;;;;;;;27.38;20.00;;;7.90;99.90;;;;;;5026357;28;20503;-51
2023/03/19 06:38:56;;;;;;;24.00;16.35;;;8.10;99.90;;;;;;5030843;28;20493;-50
2023/03/19 06:41:23;;;;;;;16.80;11.45;;;8.30;99.90;;;;;;5034052;28;20087;-50
2023/03/19 06:43:49;;;;;;;15.13;11.68;;;8.60;99.90;;;;;;5024430;28;20401;-49
2023/03/19 06:46:15;;;;;;;16.95;10.80;;;8.80;99.90;;;;;;5022916;28;20034;-50
2023/03/19 06:48:41;;;;;;;15.30;11.07;;;8.80;99.90;;;;;;5028139;28;20032;-51
2023/03/19 06:51:06;;;;;;;16.95;10.95;;;9.00;99.90;;;;;;5027401;28;20029;-54
2023/03/19 06:53:32;;;;;;;17.23;11.43;;;9.20;99.90;;;;;;5048654;28;20045;-53
2023/03/19 06:55:58;;;;;;;16.33;11.02;;;9.50;99.90;;;;;;5023803;28;20018;-51
2023/03/19 06:58:24;;;;;;;15.93;11.02;;;9.90;99.90;;;;;;5026814;28;20037;-50
2023/03/19 07:00:50;;;;;;;16.27;10.90;;;10.00;99.90;;;;;;5026107;28;20029;-52
2023/03/19 07:03:15;;;;;;;15.32;10.93;;;10.20;99.90;;;;;;5031832;28;20401;-50
2023/03/19 07:05:41;;;;;;;15.95;10.82;;;10.50;99.90;;;;;;5024934;28;20030;-50
2023/03/19 07:08:10;;;;;;;16.75;10.65;;;11.00;99.90;;;;;;5025991;28;20025;-52
2023/03/19 07:10:39;;;;;;;15.90;11.05;;;11.20;99.90;;;;;;5029100;28;20034;-52
2023/03/19 07:13:05;;;;;;;13.52;10.63;;;11.50;99.90;;;;;;5031121;28;20038;-52
2023/03/19 07:15:31;;;;;;;15.18;11.73;;;11.80;99.90;;;;;;5031790;28;20524;-52
2023/03/19 07:17:57;;;;;;;17.48;10.85;;;12.30;99.90;;;;;;5026718;28;20557;-50
2023/03/19 07:20:23;;;;;;;15.60;11.68;;;11.90;99.90;;;;;;5027044;28;20140;-50
2023/03/19 07:22:52;;;;;;;21.42;13.63;;;12.20;99.90;;;;;;5028872;28;20053;-51
2023/03/19 07:25:18;;;;;;;15.90;11.48;;;12.80;99.90;;;;;;5020974;28;20374;-53
2023/03/19 07:27:44;;;;;;;14.75;11.18;;;;;;;;;;5027751;28;20033;-51
2023/03/19 07:30:11;;;;;;;13.77;10.73;;;;;;;;;;5028475;28;20128;-53
2023/03/19 07:32:37;;;;;;;21.55;11.43;;;;;;;;;;5029577;28;20489;-53
2023/03/19 07:35:04;;;;;;;14.85;10.82;;;;;;;;;;5027688;28;20104;-53
2023/03/19 07:37:30;;;;;;;17.80;11.50;;;;;;;;;;5024767;28;20034;-54
2023/03/19 07:39:56;;;;;;;14.90;10.77;;;;;;;;;;5031548;28;20125;-52
2023/03/19 07:42:22;;;;;;;16.27;12.68;;;15.00;99.20;;;;;;5028713;28;20025;-53
2023/03/19 07:44:48;;;;;;;16.95;11.88;;;14.90;99.10;;;;;;5029031;28;20022;-52
2023/03/19 07:47:14;;;;;;;15.68;12.07;;;14.80;99.80;;;;;;5022698;28;20405;-53
2023/03/19 07:49:40;;;;;;;16.63;11.02;;;;;;;;;;5029896;28;20041;-54
2023/03/19 07:52:06;;;;;;;18.70;10.93;;;;;;;;;;5027288;28;20036;-53
2023/03/19 07:54:32;;;;;;;17.13;11.50;;;;;;;;;;5024744;28;20057;-52
2023/03/19 07:56:59;;;;;;;17.38;11.63;;;;;;;;;;5027855;28;20453;-54
2023/03/19 07:59:25;;;;;;;14.52;11.18;;;;;;;;;;5031555;28;20052;-55
2023/03/19 08:01:51;;;;;;;15.00;11.25;;;;;;;;;;5023004;28;20030;-53
2023/03/19 08:04:17;;;;;;;14.57;11.15;;;17.10;98.80;;;;;;5029651;28;20033;-54
2023/03/19 08:06:42;;;;;;;26.05;15.55;;;17.80;97.30;;;;;;5027225;28;20041;-53
2023/03/19 08:09:09;;;;;;;15.98;11.25;;;;;;;;;;5032433;28;20033;-54
2023/03/19 08:11:35;;;;;;;14.73;10.32;;;18.20;91.10;;;;;;5026044;28;20033;-54
2023/03/19 08:14:01;;;;;;;14.60;10.65;;;18.60;91.40;;;;;;5031595;28;20063;-51
2023/03/19 08:16:27;;;;;;;13.30;9.20;;;18.60;90.20;;;;;;5023271;28;20025;-51
2023/03/19 08:18:53;;;;;;;13.35;9.65;;;19.10;90.20;;;;;;5032316;28;20041;-54
2023/03/19 08:21:18;;;;;;;14.57;9.82;;;18.70;87.30;;;;;;5047330;28;20056;-53
2023/03/19 08:23:44;;;;;;;14.95;10.68;;;18.00;85.90;;;;;;5022916;28;20048;-55
2023/03/19 08:26:10;;;;;;;15.27;10.68;;;;;;;;;;5028987;28;20033;-52
2023/03/19 08:28:37;;;;;;;14.65;10.80;;;19.10;99.90;;;;;;5025769;28;20948;-54
2023/03/19 08:31:10;;;;;;;14.70;11.35;;;19.40;86.50;;;;;;5030844;28;20025;-50
2023/03/19 08:33:36;;;;;;;18.65;11.27;;;;;;;;;;5027485;28;20032;-49
2023/03/19 08:36:10;;;;;;;15.75;11.23;;;;;;;;;;5029132;28;20485;-51
2023/03/19 08:38:36;;;;;;;20.23;12.38;;;20.80;85.10;;;;;;5027082;28;20041;-49
2023/03/19 08:41:03;;;;;;;16.33;13.05;;;20.40;84.20;;;;;;5023427;28;20225;-51
2023/03/19 08:43:33;;;;;;;16.70;12.18;;;;;;;;;;5025490;28;20049;-53
2023/03/19 08:46:00;;;;;;;15.30;12.05;;;;;;;;;;5027235;28;20041;-48
2023/03/19 08:48:26;;;;;;;18.73;13.43;;;;;;;;;;5015851;28;20042;-52
2023/03/19 08:50:57;;;;;;;15.48;12.02;;;;;;;;;;5017906;28;20382;-52
2023/03/19 08:53:23;;;;;;;18.85;12.20;;;;;;;;;;5026131;28;20041;-48
2023/03/19 08:55:53;;;;;;;20.30;13.88;;;21.80;84.20;;;;;;5018767;28;20117;-50
2023/03/19 08:58:20;;;;;;;18.60;13.27;;;;;;;;;;5020981;28;20037;-54
2023/03/19 09:00:46;;;;;;;19.50;12.10;;;;;;;;;;5023904;28;20175;-54
2023/03/19 09:03:12;;;;;;;26.13;14.00;;;;;;;;;;5027725;28;20034;-52
2023/03/19 09:05:38;;;;;;;18.33;13.25;;;23.10;81.60;;;;;;5029509;28;20402;-50
2023/03/19 09:08:05;;;;;;;17.30;13.65;;;;;;;;;;5012801;28;20041;-53
2023/03/19 09:10:31;;;;;;;19.13;14.05;;;23.10;77.60;;;;;;5047224;28;20495;-54
2023/03/19 09:12:57;;;;;;;16.08;12.27;;;;;;;;;;5055370;28;20045;-54
2023/03/19 09:15:23;;;;;;;14.40;11.50;;;;;;;;;;5049271;28;20057;-49
2023/03/19 09:17:49;;;;;;;14.77;12.00;;;24.80;75.20;;;;;;5044696;28;20029;-56
2023/03/19 09:20:15;;;;;;;16.85;13.48;;;24.50;75.30;;;;;;5050020;28;20531;-51
2023/03/19 09:22:41;;;;;;;18.13;13.15;;;23.10;75.90;;;;;;5052201;28;20045;-52
2023/03/19 09:25:07;;;;;;;18.13;14.63;;;23.40;76.00;;;;;;5045396;28;20386;-52
2023/03/19 09:27:33;;;;;;;22.50;13.88;;;23.90;75.60;;;;;;5036712;28;20044;-50
2023/03/19 09:29:59;;;;;;;19.95;13.88;;;;;;;;;;5046015;28;20045;-51
2023/03/19 09:32:25;;;;;;;19.88;15.20;;;24.80;75.00;;;;;;5047129;28;20072;-51
2023/03/19 09:34:50;;;;;;;18.00;14.82;;;25.50;76.00;;;;;;5033146;28;20083;-51
2023/03/19 09:37:16;;;;;;;17.98;14.00;;;25.80;74.80;;;;;;5031621;28;20041;-53
2023/03/19 09:39:42;;;;;;;21.45;13.63;;;25.70;73.80;;;;;;5031073;28;20528;-53
2023/03/19 09:42:08;;;;;;;22.58;13.68;;;26.10;75.20;;;;;;5050074;28;20129;-54
2023/03/19 09:44:38;;;;;;;16.30;14.05;;;;;;;;;;5028565;28;20034;-52
2023/03/19 09:47:24;;;;;;;14.77;12.25;;;;;;;;;;5033736;28;20559;-53
2023/03/19 09:49:52;;;;;;;14.50;12.38;;;;;;;;;;5028046;28;20030;-52
2023/03/19 09:52:24;;;;;;;13.13;11.30;;;;;;;;;;5028487;28;20029;-53
2023/03/19 09:54:51;;;;;;;14.75;11.15;;;;;;;;;;5026575;28;20451;-50
2023/03/19 09:57:17;;;;;;;17.58;11.23;;;;;;;;;;5024338;28;20029;-51
2023/03/19 09:59:44;;;;;;;15.10;12.15;;;25.60;71.40;;;;;;5033697;28;20507;-53
2023/03/19 10:02:41;;;;;;;19.02;11.52;;;25.90;71.60;;;;;;5030080;28;20095;-52
2023/03/19 10:05:16;;;;;;;17.90;11.80;;;25.50;71.30;;;;;;5030803;28;20099;-49
2023/03/19 10:07:54;;;;;;;17.25;12.88;;;;;;;;;;5027784;28;20029;-51
2023/03/19 10:10:45;;;;;;;18.90;13.55;;;26.80;71.50;;;;;;5029918;28;20021;-52
2023/03/19 10:13:20;;;;;;;18.55;14.32;;;26.40;73.50;;;;;;5028527;28;20050;-52
2023/03/19 10:15:48;;;;;;;17.92;12.60;;;26.60;71.60;;;;;;5048754;28;20041;-52
2023/03/19 10:18:25;;;;;;;14.73;12.52;;;26.40;71.60;;;;;;5031188;28;20037;-52
2023/03/19 10:20:57;;;;;;;14.52;11.75;;;26.60;72.40;;;;;;5024916;28;20065;-48
2023/03/19 10:23:24;;;;;;;14.90;11.18;;;;;;;;;;5030863;28;20486;-53
2023/03/19 10:25:54;;;;;;;14.82;10.68;;;26.90;71.20;;;;;;5039587;28;20038;-53
2023/03/19 10:28:21;;;;;;;11.65;10.23;;;26.30;71.00;;;;;;5028774;28;20029;-51
2023/03/19 10:31:06;;;;;;;13.20;11.07;;;26.50;71.40;;;;;;5033568;28;20362;-50
2023/03/19 10:33:50;;;;;;;14.68;11.65;;;26.60;70.80;;;;;;5034908;28;20052;-53
2023/03/19 10:36:20;;;;;;;12.40;9.48;;;26.30;72.20;;;;;;5034986;28;20044;-52
2023/03/19 10:38:46;;;;;;;11.45;8.75;;;26.60;72.40;;;;;;5020376;28;20042;-53
2023/03/19 10:41:49;;;;;;;13.43;8.35;;;26.70;70.20;;;;;;5015406;28;20076;-53
2023/03/19 10:44:30;;;;;;;9.80;8.65;;;27.00;70.20;;;;;;5015166;28;20078;-49
2023/03/19 10:46:58;;;;;;;12.50;8.33;;;26.90;69.80;;;;;;5015119;28;20056;-52
2023/03/19 10:49:25;;;;;;;12.32;10.25;;;26.90;71.40;;;;;;5015176;28;20466;-50
2023/03/19 10:51:51;;;;;;;13.18;9.30;;;26.50;70.50;;;;;;5029674;28;20072;-52
2023/03/19 10:54:25;;;;;;;11.48;9.15;;;26.80;70.60;;;;;;5015009;28;20042;-50
2023/03/19 10:56:55;;;;;;;13.13;9.60;;;26.20;70.90;;;;;;5015562;28;20033;-51
2023/03/19 10:59:25;;;;;;;13.05;9.48;;;26.60;71.30;;;;;;5015572;28;20030;-50
2023/03/19 11:02:00;;;;;;;13.02;10.07;;;26.80;71.10;;;;;;5015062;28;20053;-52
2023/03/19 11:04:28;;;;;;;12.05;8.90;;;26.70;71.50;;;;;;5015079;28;20486;-53
2023/03/19 11:07:00;;;;;;;12.50;8.77;;;26.60;70.40;;;;;;5015228;28;20470;-50
2023/03/19 11:09:41;;;;;;;9.48;7.40;;;26.60;80.20;;;;;;5029161;28;20163;-51
2023/03/19 11:12:28;;;;;;;10.15;7.70;;;26.80;79.80;;;;;;5029445;28;20038;-52
2023/03/19 11:14:57;;;;;;;14.90;8.30;;;26.20;70.60;;;;;;5019349;28;20079;-53
2023/03/19 11:17:46;;;;;;;10.63;8.15;;;26.50;71.70;;;;;;5024633;28;20037;-52
2023/03/19 11:20:36;;;;;;;8.45;7.50;;;26.70;70.60;;;;;;5027447;28;20052;-52
2023/03/19 11:23:11;;;;;;;13.63;7.45;;;26.80;70.90;;;;;;5022366;28;20053;-52
2023/03/19 11:26:00;;;;;;;10.50;7.43;;;26.80;71.80;;;;;;5037378;28;20044;-52
2023/03/19 11:28:31;;;;;;;11.32;7.45;;;;;;;;;;5024716;28;20473;-50
2023/03/19 11:31:36;;;;;;;9.80;7.18;;;26.10;71.00;;;;;;5024454;28;20030;-51
2023/03/19 11:34:15;;;;;;;9.63;6.75;;;;;;;;;;5033963;28;20123;-49
2023/03/19 11:36:46;;;;;;;17.45;7.60;;;;;;;;;;5034113;28;20500;-50
2023/03/19 11:39:18;;;;;;;8.82;7.05;;;23.60;90.20;;;;;;5021108;28;20100;-52
2023/03/19 11:41:44;;;;;;;;;;;;;;;;;;5047815;28;20044;-53
2023/03/19 11:44:24;;;;;;;9.52;6.72;;;22.50;94.40;;;;;;5048204;28;19909;-51
2023/03/19 11:46:58;;;;;;;10.18;6.85;;;22.10;73.70;;;;;;5022593;28;20117;-54
2023/03/19 11:49:27;;;;;;;8.20;6.38;;;23.00;74.10;;;;;;5023248;28;20034;-51
2023/03/19 11:51:59;;;;;;;12.32;7.07;;;23.40;73.80;;;;;;5022873;28;20071;-50
2023/03/19 11:54:34;;;;;;;10.43;7.15;;;;;;;;;;5022348;28;20444;-51
2023/03/19 11:57:07;;;;;;;14.82;6.63;;;25.30;87.90;;;;;;5023737;28;20117;-52
2023/03/19 11:59:58;;;;;;;9.05;7.18;;;25.40;72.50;;;;;;5027229;28;20171;-49
2023/03/19 12:02:44;;;;;;;10.07;7.30;;;25.60;73.50;;;;;;5022923;28;20018;-53
2023/03/19 12:05:19;;;;;;;12.40;7.47;;;25.00;71.50;;;;;;5029765;28;20073;-53
2023/03/19 12:07:50;;;;;;;10.85;8.52;;;25.40;72.80;;;;;;5021799;28;20041;-53
2023/03/19 12:10:16;;;;;;;;;;;;;;;;;;5022535;28;20058;-50
2023/03/19 12:12:52;;;;;;;13.60;7.90;;;;;;;;;;5021805;28;19905;-50
2023/03/19 12:15:26;;;;;;;9.88;6.82;;;26.10;71.40;;;;;;5022045;28;20026;-48
2023/03/19 12:18:14;;;;;;;12.25;6.22;;;25.30;71.70;;;;;;5021150;28;20033;-48
2023/03/19 12:20:51;;;;;;;9.48;6.20;;;24.50;72.20;;;;;;5022225;28;20033;-51
2023/03/19 12:24:03;;;;;;;13.80;6.10;;;25.00;72.50;;;;;;5021647;28;20054;-52
2023/03/19 12:26:47;;;;;;;8.45;5.90;;;24.50;71.50;;;;;;4992356;28;20034;-51
2023/03/19 12:29:25;;;;;;;9.40;6.47;;;24.80;71.30;;;;;;5001485;28;20143;-52
2023/03/19 12:31:56;;;;;;;12.60;7.55;;;25.40;71.00;;;;;;4998749;28;20034;-51
2023/03/19 12:34:34;;;;;;;8.07;6.45;;;;;;;;;;4999507;28;20034;-49
2023/03/19 12:37:12;;;;;;;13.93;6.63;;;;;;;;;;5001553;28;20512;-51
2023/03/19 12:39:45;;;;;;;9.00;6.07;;;25.70;97.50;;;;;;5001313;28;20511;-52
2023/03/19 12:42:17;;;;;;;7.78;5.40;;;26.00;70.50;;;;;;5000815;28;20034;-49
2023/03/19 12:44:50;;;;;;;7.93;6.25;;;26.20;71.30;;;;;;5000361;28;20394;-53
2023/03/19 12:47:18;;;;;;;9.15;6.80;;;25.20;69.60;;;;;;4999283;28;20026;-48
2023/03/19 12:49:55;;;;;;;10.63;6.70;;;24.60;72.10;;;;;;5004182;28;20044;-48
2023/03/19 12:52:27;;;;;;;9.85;7.40;;;24.30;72.00;;;;;;4954345;28;20043;-53
2023/03/19 12:55:19;;;;;;;11.63;8.20;;;24.60;70.30;;;;;;4974517;28;20039;-53
2023/03/19 12:57:45;;;;;;;;;;;;;;;;;;4976628;28;20545;-51
2023/03/19 13:00:40;;;;;;;14.35;9.50;;;25.20;71.40;;;;;;5013731;28;19906;-54